• Join FlightAware (Why Join?)
  • Login
  • US Flag 
01:43PM EST


 

Airport Tracker/Info


-or-


 

Live Flight TrackerFlight Track Log ✈ ASH1048 ✈ 05-May-2013 ✈ PHNL - PHTO / ITO

Flight Track Log - Related Links

Times and Time Zones

All times are in EDT time to prevent confusion due to time zone crossing. See the ASH1048 flight status page for this flight to view local times or setup timezone preferences in your user account.

Time Position Orientation Groundspeed Altitude Reporting Facility
EDT Latitude Longitude Course Direction KTS MPH feet Rate Location/Type
01:39PM 21.3167 -157.8833 148° Southeast 170 196 1,200  Level Honolulu Center
01:40PM 21.2667 -157.8500 148° Southeast 210 242 3,400 2,280 Climbing Honolulu Center
01:41PM 21.2167 -157.8167 148° Southeast 280 322 5,800 2,400 Climbing Honolulu Center
01:42PM 21.2000 -157.7333 102° East 300 345 8,300 2,340 Climbing Honolulu Center
01:43PM 21.2167 -157.6500 78° East 310 357 10,600 2,100 Climbing Honolulu Center
01:44PM 21.2500 -157.5500 70° East 320 368 12,600 1,860 Climbing Honolulu Center
01:45PM 21.2500 -157.4667 90° East 340 391 14,400 1,680 Climbing Honolulu Center
01:46PM 21.2167 -157.3667 110° East 340 391 16,000 1,500 Climbing Honolulu Center
01:47PM 21.1667 -157.2667 118° Southeast 360 414 17,400 1,320 Climbing Honolulu Center
01:48PM 21.1167 -157.1667 118° Southeast 370 426 18,700 780 Climbing Honolulu Center
01:49PM 21.0667 -157.0667 118° Southeast 390 449 19,000 120 Climbing Honolulu Center
01:50PM 21.0167 -156.9500 115° Southeast 430 495 19,000  Level Honolulu Center
01:51PM 20.9667 -156.8500 118° Southeast 420 483 19,000  Level Honolulu Center
01:52PM 20.9167 -156.7333 115° Southeast 410 472 19,000  Level Honolulu Center
01:53PM 20.8667 -156.6333 118° Southeast 410 472 19,000  Level Honolulu Center
01:54PM 20.8000 -156.5167 121° Southeast 410 472 19,000  Level Honolulu Center
01:55PM 20.7500 -156.4167 118° Southeast 410 472 19,000  Level Honolulu Center
01:56PM 20.7000 -156.3000 115° Southeast 410 472 19,000  Level Honolulu Center
01:57PM 20.6500 -156.2000 118° Southeast 410 472 19,000  Level Honolulu Center
01:58PM 20.6000 -156.0833 115° Southeast 410 472 19,000  Level Honolulu Center
01:59PM 20.5333 -155.9833 125° Southeast 410 472 19,000  Level Honolulu Center
02:00PM 20.4833 -155.8833 118° Southeast 420 483 19,000  Level Honolulu Center
02:01PM 20.4333 -155.7667 115° Southeast 410 472 19,000 -240 Level Honolulu Center
02:02PM 20.3833 -155.6667 118° Southeast 400 460 18,600 -1,800 Descending Honolulu Center
02:03PM 20.3333 -155.5500 115° Southeast 390 449 15,400 -3,000 Descending Honolulu Center
02:04PM 20.2833 -155.4500 118° Southeast 370 426 12,700 -2,760 Descending Honolulu Center
02:05PM 20.2333 -155.3667 123° Southeast 350 403 9,900 -2,220 Descending Honolulu Center
02:06PM 20.1833 -155.3000 129° Southeast 290 334 8,300 -1,740 Descending Honolulu Center
02:07PM 20.1333 -155.2333 129° Southeast 280 322 6,400 -1,800 Descending Honolulu Center
02:08PM 20.0833 -155.1667 129° Southeast 270 311 4,700 -1,380 Descending Honolulu Center
02:09PM 20.0333 -155.1167 137° Southeast 250 288 3,700 -960 Descending Honolulu Center
02:10PM 19.9833 -155.0667 137° Southeast 250 288 2,800 -960 Descending Honolulu Center
02:11PM 19.9000 -155.0667 180° South 250 288 1,800 -720 Descending Honolulu Center
02:12PM 19.8500 -155.0667 180° South 240 276 1,400 -180 Descending Honolulu Center
02:13PM 19.7833 -155.0667 180° South 170 196 1,500 -120 Climbing Honolulu Center
02:14PM 19.7500 -155.0833 205° Southwest 140 161 1,200 -540 Descending Honolulu Center
02:15PM 19.7167 -155.0667 155° Southeast 130 150 500 -720 Descending Honolulu Center